Aérodrome :
LOGIN :

S'inscrire | Disclaimer

   EN    FR    IT 

 










Légende :    VFR   VFR Marginal   IFR   IFR Intensif   IFR Très Intensif
Visi : 
Plafond : 
>= 8 km
>= 3000ft
5 à 8 km
1000 à 3000 ft
1500m à 5 km
500 à 1000 ft
800 à 1500m
200 à 500 ft
< 800m
< 200 ft
Symboles :   Orages  Brouillard  Fortes neiges  Fortes précipitations  Vent > 20 kt
SIGMETs :   Divers  Orages  Givrage  Turbulence  Onde Orograph.  Cendres Volcan.






- Altitude de l'aérodrome : 436 ft
- Code IATA : BTS


LZIB - Bratislava

DERNIER METAR :
  • 141100Z 19006KT 120V250 9999 FEW048 21/10 Q1015 NOSIG

METARs EXPIRÉS :
  • 141030Z 16006KT 110V210 9999 FEW046 21/09 Q1016 NOSIG
  • 141000Z 18007KT 090V210 9999 FEW045 21/08 Q1016 NOSIG
  • 140930Z 13004KT 080V180 9999 FEW038 20/09 Q1016 NOSIG
  • 140900Z 14003KT 040V210 9999 FEW033 20/09 Q1016 NOSIG
  • 140830Z VRB03KT 9999 FEW031 19/08 Q1016 NOSIG
  • 140730Z 10003KT 060V210 9999 FEW022 18/09 Q1016 NOSIG
  • 140700Z VRB02KT 9999 FEW020 18/09 Q1016 NOSIG

TAF TAF LZIB
Valide du 14 à 06h jusqu'au 15 à 06h UTC


140515Z 1406/1506 30005KT CAVOK
BECMG 1406/1408 19008KT
BECMG 1419/1421 VRB02KT



MET'MAP, la Météo Aéronautique d'un coup d'oeil ! - Copyright ORBIFLY Décembre 2007 - Disclaimer

ORBIFLY MET'MAP TEAM :

Programmation & Développement : Alexandra Zaïnal
Sur une idée originale de : Baudouin d'Aumeries
Soutien technique & logistique : Manuel Goepfert
Assistance : Marc-Olivier Méhu




SOURCES & CREDITS :

   NOAA